createdAt,value
2017-04-21T00:00:45.913Z,7.90
2017-04-21T00:01:51.976Z,7.90
2017-04-21T00:02:57.952Z,7.90
2017-04-21T00:04:04.557Z,7.90
2017-04-21T00:05:10.378Z,7.90
2017-04-21T00:06:16.314Z,7.90
2017-04-21T00:07:22.239Z,7.90
2017-04-21T00:08:28.971Z,7.90
2017-04-21T00:09:34.753Z,7.90
2017-04-21T00:10:40.686Z,7.90
2017-04-21T00:11:46.650Z,8.00
2017-04-21T00:12:52.993Z,8.00
2017-04-21T00:13:58.801Z,8.00
2017-04-21T00:15:04.693Z,8.00
2017-04-21T00:16:10.772Z,8.00
2017-04-21T00:17:17.220Z,8.00
2017-04-21T00:18:23.749Z,8.00
2017-04-21T00:19:29.695Z,8.00
2017-04-21T00:20:35.606Z,8.10
2017-04-21T00:21:42.336Z,8.00
2017-04-21T00:22:48.369Z,8.10
2017-04-21T00:23:54.215Z,8.10
2017-04-21T00:24:59.964Z,8.10
2017-04-21T00:26:05.748Z,8.10
2017-04-21T00:27:11.605Z,8.10
2017-04-21T00:28:18.377Z,8.00
2017-04-21T00:30:30.456Z,8.10
2017-04-21T00:32:42.584Z,8.00
2017-04-21T00:33:48.689Z,8.10
2017-04-21T00:34:54.666Z,8.10
2017-04-21T00:36:00.465Z,8.10
2017-04-21T00:37:06.411Z,8.10
2017-04-21T00:38:13.193Z,8.10
2017-04-21T00:39:19.103Z,8.10
2017-04-21T00:40:24.993Z,8.10
2017-04-21T00:41:31.589Z,8.10
2017-04-21T00:42:38.051Z,8.10
2017-04-21T00:43:44.021Z,8.10
2017-04-21T00:44:50.129Z,8.10
2017-04-21T00:45:56.900Z,8.10
2017-04-21T00:47:02.929Z,8.10
2017-04-21T00:48:08.877Z,8.10
2017-04-21T00:49:14.939Z,8.10
2017-04-21T00:50:21.433Z,8.10
2017-04-21T00:51:27.409Z,8.10
2017-04-21T00:52:33.246Z,8.10
2017-04-21T00:53:40.021Z,8.10
2017-04-21T00:54:46.560Z,8.10
2017-04-21T00:55:52.666Z,8.10
2017-04-21T00:56:58.522Z,8.10
2017-04-21T00:58:04.317Z,8.10
2017-04-21T00:59:10.425Z,8.10
2017-04-21T01:00:16.367Z,8.10
2017-04-21T01:01:22.496Z,8.10
2017-04-21T01:02:28.449Z,8.10
2017-04-21T01:03:34.528Z,8.10
2017-04-21T01:04:40.300Z,8.10
2017-04-21T01:05:47.046Z,8.10
2017-04-21T01:06:53.808Z,8.10
2017-04-21T01:08:00.392Z,8.10
2017-04-21T01:09:06.689Z,8.10
2017-04-21T01:10:13.456Z,8.10
2017-04-21T01:11:19.362Z,8.10
2017-04-21T01:12:25.141Z,8.10
2017-04-21T01:13:31.749Z,8.10
2017-04-21T01:14:37.742Z,8.10
2017-04-21T01:15:43.900Z,8.10
2017-04-21T01:16:49.715Z,8.10
2017-04-21T01:17:55.759Z,8.10
2017-04-21T01:19:01.645Z,8.10
2017-04-21T01:20:07.644Z,8.10
2017-04-21T01:21:13.612Z,8.10
2017-04-21T01:22:19.575Z,8.10
2017-04-21T01:23:25.345Z,8.10
2017-04-21T01:24:31.387Z,8.10
2017-04-21T01:25:37.283Z,8.10
2017-04-21T01:26:43.200Z,8.10
2017-04-21T01:27:49.221Z,8.10
2017-04-21T01:28:55.142Z,8.10
2017-04-21T01:30:01.149Z,8.10
2017-04-21T01:31:07.178Z,8.10
2017-04-21T01:32:13.385Z,8.10
2017-04-21T01:33:20.027Z,8.00
2017-04-21T01:34:26.000Z,8.10
2017-04-21T01:35:31.964Z,8.10
2017-04-21T01:36:37.909Z,8.00
2017-04-21T01:37:43.974Z,8.10
2017-04-21T01:38:49.890Z,8.10
2017-04-21T01:39:55.881Z,8.00
2017-04-21T01:42:08.392Z,8.10
2017-04-21T01:43:14.966Z,8.00
2017-04-21T01:44:21.649Z,8.00
2017-04-21T01:45:27.525Z,8.10
2017-04-21T01:46:33.270Z,8.10
2017-04-21T01:47:39.061Z,8.10
2017-04-21T01:48:44.950Z,8.10
2017-04-21T01:49:50.669Z,8.10
2017-04-21T01:50:56.716Z,8.10
2017-04-21T01:52:03.209Z,8.10
2017-04-21T01:53:09.832Z,8.10
2017-04-21T01:54:16.338Z,8.10
2017-04-21T01:55:22.385Z,8.10
2017-04-21T01:56:28.365Z,8.10
2017-04-21T01:57:34.163Z,8.10
2017-04-21T01:58:40.736Z,8.00
2017-04-21T01:59:46.594Z,8.00
2017-04-21T02:00:53.248Z,8.10
2017-04-21T02:01:59.693Z,8.10
2017-04-21T02:03:06.345Z,8.10
2017-04-21T02:04:12.937Z,8.10
2017-04-21T02:05:19.645Z,8.10
2017-04-21T02:06:26.405Z,8.10
2017-04-21T02:07:32.281Z,8.10
2017-04-21T02:08:38.101Z,8.20
2017-04-21T02:09:43.921Z,8.10
2017-04-21T02:10:49.758Z,8.20
2017-04-21T02:11:55.598Z,8.20
2017-04-21T02:13:01.640Z,8.20
2017-04-21T02:14:07.501Z,8.20
2017-04-21T02:15:13.420Z,8.20
2017-04-21T02:16:19.524Z,8.20
2017-04-21T02:17:25.289Z,8.20
2017-04-21T02:18:31.501Z,8.20
2017-04-21T02:20:43.507Z,8.20
2017-04-21T02:21:49.538Z,8.20
2017-04-21T02:22:55.278Z,8.20
2017-04-21T02:24:01.157Z,8.20
2017-04-21T02:25:07.192Z,8.20
2017-04-21T02:26:13.183Z,8.20
2017-04-21T02:27:19.187Z,8.20
2017-04-21T02:28:25.214Z,8.20
2017-04-21T02:29:31.008Z,8.20
2017-04-21T02:30:36.960Z,8.20
2017-04-21T02:31:43.037Z,8.20
2017-04-21T02:32:49.009Z,8.20
2017-04-21T02:33:54.915Z,8.20
2017-04-21T02:35:00.945Z,8.20
2017-04-21T02:36:07.643Z,8.20
2017-04-21T02:37:13.448Z,8.20
2017-04-21T02:38:19.633Z,8.20
2017-04-21T02:39:25.397Z,8.20
2017-04-21T02:40:31.480Z,8.20
2017-04-21T02:41:38.221Z,8.20
2017-04-21T02:42:44.231Z,8.20
2017-04-21T02:43:50.239Z,8.20
2017-04-21T02:44:56.208Z,8.20
2017-04-21T02:46:02.129Z,8.20
2017-04-21T02:47:07.968Z,8.20
2017-04-21T02:48:14.013Z,8.20
2017-04-21T02:49:20.202Z,8.20
2017-04-21T02:50:26.757Z,8.20
2017-04-21T02:51:32.733Z,8.20
2017-04-21T02:52:39.326Z,8.20
2017-04-21T02:53:45.078Z,8.20
2017-04-21T02:54:51.025Z,8.20
2017-04-21T02:55:57.759Z,8.20
2017-04-21T02:57:03.661Z,8.20
2017-04-21T02:58:09.553Z,8.20
2017-04-21T02:59:15.583Z,8.20
2017-04-21T03:00:21.722Z,8.20
2017-04-21T03:01:27.605Z,8.30
2017-04-21T03:02:34.148Z,8.20
2017-04-21T03:03:40.184Z,8.20
2017-04-21T03:04:46.328Z,8.20
2017-04-21T03:05:52.394Z,8.20
2017-04-21T03:06:58.204Z,8.20
2017-04-21T03:08:04.253Z,8.20
2017-04-21T03:09:10.270Z,8.20
2017-04-21T03:10:16.117Z,8.20
2017-04-21T03:11:22.111Z,8.20
2017-04-21T03:12:28.108Z,8.20
2017-04-21T03:13:34.136Z,8.20
2017-04-21T03:14:40.244Z,8.20
2017-04-21T03:15:46.860Z,8.20
2017-04-21T03:16:53.364Z,8.20
2017-04-21T03:17:59.873Z,8.20
2017-04-21T03:19:05.669Z,8.20
2017-04-21T03:20:12.163Z,8.20
2017-04-21T03:21:18.225Z,8.20
2017-04-21T03:22:24.257Z,8.20
2017-04-21T03:23:30.273Z,8.20
2017-04-21T03:24:36.110Z,8.20
2017-04-21T03:25:42.145Z,8.20
2017-04-21T03:26:48.228Z,8.20
2017-04-21T03:27:54.065Z,8.20
2017-04-21T03:29:00.038Z,8.20
2017-04-21T03:30:06.608Z,8.20
2017-04-21T03:31:13.156Z,8.20
2017-04-21T03:32:19.742Z,8.20
2017-04-21T03:33:25.681Z,8.20
2017-04-21T03:34:31.397Z,8.20
2017-04-21T03:35:37.212Z,8.10
2017-04-21T03:36:43.336Z,8.20
2017-04-21T03:37:50.135Z,8.20
2017-04-21T03:38:56.785Z,8.10
2017-04-21T03:40:02.693Z,8.10
2017-04-21T03:41:08.552Z,8.10
2017-04-21T03:42:15.067Z,8.20
2017-04-21T03:43:21.630Z,8.10
2017-04-21T03:44:27.791Z,8.20
2017-04-21T03:45:33.666Z,8.10
2017-04-21T03:46:39.720Z,8.10
2017-04-21T03:47:45.657Z,8.10
2017-04-21T03:48:51.465Z,8.10
2017-04-21T03:49:57.519Z,8.10
2017-04-21T03:51:03.478Z,8.20
2017-04-21T03:52:09.254Z,8.10
2017-04-21T03:53:15.337Z,8.10
2017-04-21T03:54:21.129Z,8.10
2017-04-21T03:55:27.204Z,8.10
2017-04-21T03:58:22.089Z,8.10
2017-04-21T03:59:28.180Z,8.10
2017-04-21T04:00:34.142Z,8.10
2017-04-21T04:01:39.863Z,8.10
2017-04-21T04:02:46.345Z,8.10
2017-04-21T04:03:53.427Z,8.10
2017-04-21T04:04:59.152Z,8.10
2017-04-21T04:06:05.085Z,8.10
2017-04-21T04:07:11.681Z,8.10
2017-04-21T04:08:17.755Z,8.10
2017-04-21T04:09:23.745Z,8.10
2017-04-21T04:10:30.305Z,8.10
2017-04-21T04:11:37.006Z,8.10
2017-04-21T04:12:43.016Z,8.10
2017-04-21T04:13:48.815Z,8.10
2017-04-21T04:14:54.886Z,8.10
2017-04-21T04:16:00.708Z,8.10
2017-04-21T04:17:06.631Z,8.20
2017-04-21T04:18:12.661Z,8.20
2017-04-21T04:19:18.469Z,8.10
2017-04-21T04:20:25.173Z,8.10
2017-04-21T04:21:30.903Z,8.10
2017-04-21T04:22:37.699Z,8.10
2017-04-21T04:23:43.710Z,8.10
2017-04-21T04:24:49.642Z,8.10
2017-04-21T04:25:55.419Z,8.10
2017-04-21T04:27:01.552Z,8.10
2017-04-21T04:28:07.566Z,8.20
2017-04-21T04:29:13.316Z,8.10
2017-04-21T04:30:19.290Z,8.10
2017-04-21T04:31:25.203Z,8.20
2017-04-21T04:32:30.939Z,8.20
2017-04-21T04:33:36.788Z,8.10
2017-04-21T04:34:42.528Z,8.20
2017-04-21T04:35:49.024Z,8.20
2017-04-21T04:36:55.821Z,8.20
2017-04-21T04:38:01.705Z,8.20
2017-04-21T04:39:07.700Z,8.20
2017-04-21T04:40:13.560Z,8.20
2017-04-21T04:41:20.377Z,8.10
2017-04-21T04:42:26.422Z,8.20
2017-04-21T04:43:32.544Z,8.20
2017-04-21T04:44:38.537Z,8.20
2017-04-21T04:45:44.648Z,8.20
2017-04-21T04:46:51.220Z,8.10
2017-04-21T04:47:57.818Z,8.20
2017-04-21T04:49:03.544Z,8.20
2017-04-21T04:50:09.449Z,8.20
2017-04-21T04:51:15.518Z,8.10
2017-04-21T04:52:21.494Z,8.10
2017-04-21T04:53:27.269Z,8.10
2017-04-21T04:54:33.814Z,8.10
2017-04-21T04:55:40.494Z,8.10
2017-04-21T04:56:46.414Z,8.10
2017-04-21T04:57:52.422Z,8.10
2017-04-21T04:58:58.520Z,8.10
2017-04-21T05:00:04.686Z,8.20
2017-04-21T05:01:10.555Z,8.20
2017-04-21T05:02:16.649Z,8.20
2017-04-21T05:03:22.671Z,8.20
2017-04-21T05:04:28.630Z,8.20
2017-04-21T05:05:34.616Z,8.20
2017-04-21T05:06:40.622Z,8.20
2017-04-21T05:07:46.737Z,8.20
2017-04-21T05:08:52.557Z,8.20
2017-04-21T05:10:00.424Z,8.20
2017-04-21T05:11:07.123Z,8.20
2017-04-21T05:12:13.220Z,8.20
2017-04-21T05:13:19.346Z,8.20
2017-04-21T05:14:25.289Z,8.20
2017-04-21T05:15:31.308Z,8.20
2017-04-21T05:16:37.478Z,8.20
2017-04-21T05:17:44.438Z,8.20
2017-04-21T05:18:50.528Z,8.20
2017-04-21T05:19:56.644Z,8.20
2017-04-21T05:21:02.590Z,8.20
2017-04-21T05:22:08.616Z,8.20
2017-04-21T05:23:14.541Z,8.20
2017-04-21T05:24:20.617Z,8.20
2017-04-21T05:25:26.471Z,8.20
2017-04-21T05:26:32.281Z,8.20
2017-04-21T05:27:38.198Z,8.20
2017-04-21T05:28:44.936Z,8.20
2017-04-21T05:29:51.028Z,8.30
2017-04-21T05:30:57.108Z,8.20
2017-04-21T05:32:03.896Z,8.20
2017-04-21T05:33:09.915Z,8.20
2017-04-21T05:34:15.765Z,8.20
2017-04-21T05:35:21.894Z,8.30
2017-04-21T05:36:27.794Z,8.30
2017-04-21T05:37:33.867Z,8.30
2017-04-21T05:38:39.835Z,8.30
2017-04-21T05:39:45.870Z,8.30
2017-04-21T05:40:52.833Z,8.30
2017-04-21T05:41:58.787Z,8.30
2017-04-21T05:43:04.823Z,8.40
2017-04-21T05:44:10.958Z,8.40
2017-04-21T05:45:17.446Z,8.40
2017-04-21T05:46:24.304Z,8.40
2017-04-21T05:47:30.082Z,8.40
2017-04-21T05:49:42.264Z,8.40
2017-04-21T05:50:48.322Z,8.40
2017-04-21T05:51:54.580Z,8.40
2017-04-21T05:53:00.556Z,8.40
2017-04-21T05:54:06.401Z,8.40
2017-04-21T05:55:13.217Z,8.40
2017-04-21T05:56:19.503Z,8.40
2017-04-21T05:57:25.572Z,8.50
2017-04-21T05:58:30.943Z,8.50
2017-04-21T05:59:37.755Z,8.50
2017-04-21T06:00:44.291Z,8.50
2017-04-21T06:01:50.368Z,8.50
2017-04-21T06:02:56.534Z,8.50
2017-04-21T06:04:03.153Z,8.50
2017-04-21T06:05:09.250Z,8.60
2017-04-21T06:06:15.217Z,8.60
2017-04-21T06:07:21.136Z,8.60
2017-04-21T06:08:27.258Z,8.60
2017-04-21T06:09:33.299Z,8.60
2017-04-21T06:10:40.511Z,8.60
2017-04-21T06:11:48.300Z,8.60
2017-04-21T06:12:54.156Z,8.60
2017-04-21T06:14:01.526Z,8.70
2017-04-21T06:15:07.833Z,8.70
2017-04-21T06:16:16.020Z,8.70
2017-04-21T06:17:22.062Z,8.80
2017-04-21T06:18:28.816Z,8.80
2017-04-21T06:19:35.147Z,8.80
2017-04-21T06:20:41.221Z,8.80
2017-04-21T06:21:47.121Z,8.80
2017-04-21T06:22:53.084Z,8.80
2017-04-21T06:23:59.307Z,8.80
2017-04-21T06:25:05.270Z,8.90
2017-04-21T06:26:11.838Z,8.80
2017-04-21T06:27:19.462Z,8.80
2017-04-21T06:28:25.567Z,8.90
2017-04-21T06:29:31.616Z,8.90
2017-04-21T06:30:37.570Z,8.90
2017-04-21T06:31:43.658Z,8.90
2017-04-21T06:32:50.017Z,8.90
2017-04-21T06:33:56.968Z,8.90
2017-04-21T06:35:02.971Z,8.90
2017-04-21T06:36:09.817Z,8.90
2017-04-21T06:37:15.831Z,8.90
2017-04-21T06:38:22.772Z,8.90
2017-04-21T06:39:28.779Z,9.00
2017-04-21T06:40:34.577Z,9.00
2017-04-21T06:41:40.729Z,9.00
2017-04-21T06:42:46.831Z,9.00
2017-04-21T06:43:52.927Z,9.00
2017-04-21T06:44:59.834Z,9.10
2017-04-21T06:46:06.729Z,9.10
2017-04-21T06:47:13.526Z,9.10
2017-04-21T06:48:19.638Z,9.10
2017-04-21T06:49:25.722Z,9.10
2017-04-21T06:50:32.161Z,9.10
2017-04-21T06:51:37.961Z,9.20
2017-04-21T06:52:45.094Z,9.10
2017-04-21T06:53:50.875Z,9.20
2017-04-21T06:54:57.430Z,9.20
2017-04-21T06:56:03.421Z,9.20
2017-04-21T06:57:09.449Z,9.20
2017-04-21T06:58:15.571Z,9.20
2017-04-21T06:59:21.735Z,9.30
2017-04-21T07:00:27.496Z,9.30
2017-04-21T07:01:33.526Z,9.30
2017-04-21T07:02:50.907Z,9.30
2017-04-21T07:04:00.042Z,9.30
2017-04-21T07:05:05.865Z,9.40
2017-04-21T07:06:11.758Z,9.40
2017-04-21T07:07:17.728Z,9.40
2017-04-21T07:08:24.493Z,9.40
2017-04-21T07:09:30.346Z,9.40
2017-04-21T07:10:36.916Z,9.40
2017-04-21T07:11:43.047Z,9.40
2017-04-21T07:12:48.814Z,9.40
2017-04-21T07:13:55.533Z,9.40
2017-04-21T07:15:01.657Z,9.40
2017-04-21T07:16:07.529Z,9.50
2017-04-21T07:17:13.481Z,9.50
2017-04-21T07:18:19.994Z,9.50
2017-04-21T07:19:25.829Z,9.50
2017-04-21T07:20:31.874Z,9.50
2017-04-21T07:21:38.801Z,9.50
2017-04-21T07:22:45.776Z,9.60
2017-04-21T07:23:51.739Z,9.60
2017-04-21T07:24:57.545Z,9.60
2017-04-21T07:26:04.454Z,9.60
2017-04-21T07:27:11.433Z,9.60
2017-04-21T07:28:17.366Z,9.70
2017-04-21T07:29:24.674Z,9.60
2017-04-21T07:30:30.605Z,9.70
2017-04-21T07:31:37.591Z,9.70
2017-04-21T07:32:44.301Z,9.70
2017-04-21T07:33:50.547Z,9.80
2017-04-21T07:34:56.324Z,9.70
2017-04-21T07:37:09.176Z,9.70
2017-04-21T07:38:15.130Z,9.70
2017-04-21T07:39:21.273Z,9.80
2017-04-21T07:40:27.266Z,9.80
2017-04-21T07:41:33.338Z,9.80
2017-04-21T07:42:39.508Z,9.80
2017-04-21T07:43:45.421Z,9.80
2017-04-21T07:44:51.431Z,9.80
2017-04-21T07:45:57.438Z,9.80
2017-04-21T07:47:03.556Z,9.80
2017-04-21T07:48:09.397Z,9.80
2017-04-21T07:49:15.402Z,9.80
2017-04-21T07:50:21.494Z,9.80
2017-04-21T07:51:27.647Z,9.80
2017-04-21T07:52:33.462Z,9.80
2017-04-21T07:53:39.388Z,9.80
2017-04-21T07:54:45.131Z,9.80
2017-04-21T07:55:50.960Z,9.80
2017-04-21T07:56:57.570Z,9.80
2017-04-21T07:58:03.391Z,9.90
2017-04-21T07:59:10.004Z,9.80
2017-04-21T08:00:16.635Z,9.90
2017-04-21T08:01:22.583Z,9.90
2017-04-21T08:02:28.860Z,9.90
2017-04-21T08:03:34.793Z,9.90
2017-04-21T08:04:40.850Z,9.90
2017-04-21T08:05:46.689Z,10.00
2017-04-21T08:06:53.044Z,10.00
2017-04-21T08:07:58.985Z,9.90
2017-04-21T08:09:06.513Z,9.90
2017-04-21T08:10:13.866Z,9.90
2017-04-21T08:11:20.605Z,9.90
2017-04-21T08:12:26.402Z,10.00
2017-04-21T08:13:33.297Z,10.00
2017-04-21T08:14:39.029Z,10.10
2017-04-21T08:15:45.605Z,10.00
2017-04-21T08:16:52.112Z,9.90
2017-04-21T08:17:58.699Z,9.90
2017-04-21T08:19:04.732Z,10.00
2017-04-21T08:20:10.613Z,10.00
2017-04-21T08:21:16.629Z,10.00
2017-04-21T08:22:23.146Z,10.00
2017-04-21T08:23:29.233Z,10.00
2017-04-21T08:24:36.221Z,10.00
2017-04-21T08:25:43.073Z,10.10
2017-04-21T08:26:49.078Z,10.10
2017-04-21T08:27:55.137Z,10.10
2017-04-21T08:29:01.797Z,10.10
2017-04-21T08:30:07.579Z,10.10
2017-04-21T08:31:13.620Z,10.20
2017-04-21T08:32:19.769Z,10.30
2017-04-21T08:33:25.625Z,10.30
2017-04-21T08:34:31.962Z,10.30
2017-04-21T08:35:37.688Z,10.40
2017-04-21T08:36:43.664Z,10.40
2017-04-21T08:37:49.993Z,10.40
2017-04-21T08:38:55.898Z,10.50
2017-04-21T08:40:02.089Z,10.60
2017-04-21T08:41:08.719Z,10.60
2017-04-21T08:42:14.838Z,10.60
2017-04-21T08:44:27.875Z,10.70
2017-04-21T08:45:33.802Z,10.80
2017-04-21T08:46:39.906Z,10.80
2017-04-21T08:47:45.926Z,10.90
2017-04-21T08:48:51.771Z,10.90
2017-04-21T08:49:57.793Z,10.80
2017-04-21T08:51:03.933Z,10.90
2017-04-21T08:52:10.018Z,11.10
2017-04-21T08:53:16.087Z,11.10
2017-04-21T08:54:21.977Z,11.10
2017-04-21T08:55:28.010Z,11.10
2017-04-21T08:57:39.855Z,11.20
2017-04-21T08:58:45.755Z,11.20
2017-04-21T08:59:51.713Z,11.20
2017-04-21T09:00:57.690Z,11.20
2017-04-21T09:02:03.453Z,11.30
2017-04-21T09:03:09.482Z,11.40
2017-04-21T09:04:15.234Z,11.40
2017-04-21T09:05:21.000Z,11.50
2017-04-21T09:06:27.034Z,11.50
2017-04-21T09:07:33.129Z,11.50
2017-04-21T09:08:38.940Z,11.50
2017-04-21T09:09:44.986Z,11.60
2017-04-21T09:10:51.009Z,11.60
2017-04-21T09:11:56.752Z,11.50
2017-04-21T09:13:03.507Z,11.60
2017-04-21T09:14:10.273Z,11.60
2017-04-21T09:15:16.017Z,11.50
2017-04-21T09:16:22.601Z,11.70
2017-04-21T09:17:29.369Z,11.70
2017-04-21T09:18:35.257Z,11.90
2017-04-21T09:19:41.034Z,11.70
2017-04-21T09:20:46.789Z,11.80
2017-04-21T09:21:53.793Z,11.80
2017-04-21T09:22:59.736Z,11.90
2017-04-21T09:24:05.958Z,11.90
2017-04-21T09:25:11.768Z,11.90
2017-04-21T09:26:17.645Z,12.00
2017-04-21T09:27:26.490Z,12.00
2017-04-21T09:28:33.181Z,11.90
2017-04-21T09:29:40.051Z,11.90
2017-04-21T09:31:02.193Z,11.90
2017-04-21T09:32:04.326Z,11.90
2017-04-21T09:32:58.831Z,11.90
2017-04-21T09:34:33.407Z,11.80
2017-04-21T09:35:10.746Z,11.60
2017-04-21T09:36:16.828Z,11.80
2017-04-21T09:37:22.987Z,11.70
2017-04-21T09:38:28.967Z,11.80
2017-04-21T09:39:35.018Z,11.80
2017-04-21T09:40:41.017Z,11.80
2017-04-21T09:41:46.897Z,11.70
2017-04-21T09:42:52.922Z,11.70
2017-04-21T09:43:58.974Z,11.70
2017-04-21T09:45:05.686Z,11.70
2017-04-21T09:46:11.655Z,11.70
2017-04-21T09:47:17.598Z,11.80
2017-04-21T09:48:23.358Z,11.70
2017-04-21T09:49:29.305Z,11.70
2017-04-21T09:50:35.161Z,11.80
2017-04-21T09:52:37.148Z,11.90
2017-04-21T09:52:46.957Z,11.90
2017-04-21T09:54:58.998Z,11.80
2017-04-21T09:56:30.777Z,11.80
2017-04-21T10:00:06.710Z,11.80
2017-04-21T10:01:24.970Z,12.10
2017-04-21T10:01:55.400Z,11.90
2017-04-21T10:03:07.834Z,12.00
2017-04-21T10:03:12.932Z,12.00
2017-04-21T10:05:05.339Z,12.00
2017-04-21T10:06:18.793Z,12.00
2017-04-21T10:06:55.134Z,11.90
2017-04-21T10:07:52.544Z,11.90
2017-04-21T10:07:55.467Z,11.90
2017-04-21T10:08:22.162Z,11.90
2017-04-21T10:09:18.950Z,11.90
2017-04-21T10:10:24.974Z,11.90
2017-04-21T10:11:31.001Z,11.90
2017-04-21T10:12:37.170Z,11.90
2017-04-21T10:13:44.070Z,12.00
2017-04-21T10:14:50.072Z,12.00
2017-04-21T10:15:56.192Z,11.90
2017-04-21T10:17:02.200Z,12.00
2017-04-21T10:18:08.749Z,12.00
2017-04-21T10:19:14.484Z,12.10
2017-04-21T10:20:21.121Z,12.10
2017-04-21T10:21:27.925Z,12.20
2017-04-21T10:22:33.957Z,12.20
2017-04-21T10:23:39.861Z,12.20
2017-04-21T10:24:45.752Z,12.20
2017-04-21T10:25:51.579Z,12.20
2017-04-21T10:26:57.527Z,12.20
2017-04-21T10:28:03.477Z,12.30
2017-04-21T10:29:09.563Z,12.30
2017-04-21T10:31:55.977Z,12.40
2017-04-21T10:33:01.784Z,12.40
2017-04-21T10:34:07.802Z,12.40
2017-04-21T10:35:13.711Z,12.40
2017-04-21T10:36:19.466Z,12.50
2017-04-21T10:37:25.513Z,12.50
2017-04-21T10:38:31.512Z,12.60
2017-04-21T10:39:38.045Z,12.60
2017-04-21T10:40:44.931Z,12.60
2017-04-21T10:41:50.799Z,12.70
2017-04-21T10:42:56.601Z,12.70
2017-04-21T10:44:02.787Z,12.60
2017-04-21T10:45:08.844Z,12.60
2017-04-21T10:46:15.207Z,12.70
2017-04-21T10:47:21.156Z,12.70
2017-04-21T10:48:27.243Z,12.80
2017-04-21T10:49:32.988Z,12.80
2017-04-21T10:50:38.761Z,12.70
2017-04-21T10:51:44.480Z,12.70
2017-04-21T10:52:50.317Z,12.90
2017-04-21T10:53:56.289Z,12.90
2017-04-21T10:55:02.289Z,13.10
2017-04-21T10:56:08.245Z,13.20
2017-04-21T10:57:15.032Z,13.10
2017-04-21T10:58:21.036Z,13.10
2017-04-21T10:59:27.069Z,13.00
2017-04-21T11:00:33.705Z,13.20
2017-04-21T11:01:39.416Z,13.20
2017-04-21T11:02:45.793Z,13.30
2017-04-21T11:03:51.566Z,13.60
2017-04-21T11:04:57.354Z,13.80
2017-04-21T11:06:03.176Z,13.70
2017-04-21T11:07:08.962Z,13.50
2017-04-21T11:08:14.757Z,13.40
2017-04-21T11:09:21.409Z,13.30
2017-04-21T11:10:27.469Z,13.30
2017-04-21T11:11:33.497Z,13.30
2017-04-21T11:12:39.501Z,13.40
2017-04-21T11:13:45.603Z,13.30
2017-04-21T11:14:51.546Z,13.20
2017-04-21T11:15:57.596Z,13.10
2017-04-21T11:17:03.456Z,13.10
2017-04-21T11:18:09.845Z,13.00
2017-04-21T11:19:16.046Z,13.00
2017-04-21T11:20:22.075Z,13.10
2017-04-21T11:21:28.624Z,13.00
2017-04-21T11:22:34.628Z,13.10
2017-04-21T11:23:40.714Z,13.20
2017-04-21T11:24:46.758Z,13.20
2017-04-21T11:25:52.561Z,13.30
2017-04-21T11:26:59.165Z,13.30
2017-04-21T11:28:05.290Z,13.20
2017-04-21T11:29:11.332Z,13.40
2017-04-21T11:30:18.108Z,13.40
2017-04-21T11:31:24.077Z,13.50
2017-04-21T11:32:30.018Z,13.40
2017-04-21T11:33:35.922Z,13.40
2017-04-21T11:34:41.837Z,13.40
2017-04-21T11:35:47.819Z,13.30
2017-04-21T11:36:53.721Z,13.30
2017-04-21T11:37:59.705Z,13.30
2017-04-21T11:39:05.945Z,13.20
2017-04-21T11:40:11.953Z,13.10
2017-04-21T11:41:18.221Z,13.10
2017-04-21T11:42:25.144Z,13.00
2017-04-21T11:43:31.190Z,13.10
2017-04-21T11:44:37.010Z,13.10
2017-04-21T11:45:43.885Z,13.10
2017-04-21T11:46:49.857Z,13.10
2017-04-21T11:47:55.848Z,13.20
2017-04-21T11:49:01.771Z,13.20
2017-04-21T11:50:08.007Z,13.10
2017-04-21T11:51:14.252Z,13.20
2017-04-21T11:52:20.065Z,13.20
2017-04-21T11:53:27.257Z,13.20
2017-04-21T11:54:33.999Z,13.10
2017-04-21T11:55:40.015Z,13.10
2017-04-21T11:56:46.204Z,13.00
2017-04-21T11:57:52.116Z,13.00
2017-04-21T11:58:58.213Z,12.90
2017-04-21T12:00:04.221Z,12.90
2017-04-21T12:01:10.805Z,12.80
2017-04-21T12:02:16.906Z,12.90
2017-04-21T12:03:23.513Z,12.80
2017-04-21T12:04:29.548Z,12.80
2017-04-21T12:05:35.519Z,12.80
2017-04-21T12:06:42.294Z,12.70
2017-04-21T12:07:48.350Z,12.70
2017-04-21T12:08:54.428Z,12.70
2017-04-21T12:10:01.016Z,12.70
2017-04-21T12:11:06.720Z,12.70
2017-04-21T12:12:12.675Z,12.60
2017-04-21T12:13:18.582Z,12.60
2017-04-21T12:14:25.218Z,12.60
2017-04-21T12:15:31.048Z,12.60
2017-04-21T12:16:37.653Z,12.60
2017-04-21T12:17:43.951Z,12.60
2017-04-21T12:18:50.103Z,12.60
2017-04-21T12:19:56.928Z,12.60
2017-04-21T12:21:02.810Z,12.60
2017-04-21T12:22:09.002Z,12.60
2017-04-21T12:23:14.781Z,12.60
2017-04-21T12:24:20.680Z,12.60
2017-04-21T12:25:26.664Z,12.50
2017-04-21T12:26:32.570Z,12.50
2017-04-21T12:27:38.590Z,12.60
2017-04-21T12:28:44.626Z,12.60
2017-04-21T12:29:51.366Z,12.60
2017-04-21T12:30:57.265Z,12.50
2017-04-21T12:32:03.333Z,12.50
2017-04-21T12:33:09.259Z,12.50
2017-04-21T12:34:15.171Z,12.50
2017-04-21T12:35:21.232Z,12.50
2017-04-21T12:36:27.024Z,12.50
2017-04-21T12:37:32.808Z,12.50
2017-04-21T12:38:39.421Z,12.40
2017-04-21T12:39:46.030Z,12.40
2017-04-21T12:40:52.094Z,12.40
2017-04-21T12:41:57.846Z,12.30
2017-04-21T12:43:03.701Z,12.30
2017-04-21T12:44:09.797Z,12.30
2017-04-21T12:45:15.764Z,12.30
2017-04-21T12:46:21.896Z,12.30
2017-04-21T12:47:27.878Z,12.30
2017-04-21T12:48:33.957Z,12.20
2017-04-21T12:49:39.884Z,12.10
2017-04-21T12:50:45.993Z,12.10
2017-04-21T12:51:52.094Z,12.10
2017-04-21T12:52:58.150Z,12.00
2017-04-21T12:54:05.076Z,12.00
2017-04-21T12:55:12.044Z,12.00
2017-04-21T12:56:17.945Z,12.00
2017-04-21T12:57:24.542Z,12.00
2017-04-21T12:58:30.569Z,12.10
2017-04-21T12:59:36.617Z,12.10
2017-04-21T13:00:43.253Z,12.00
2017-04-21T13:01:49.788Z,12.20
2017-04-21T13:02:55.709Z,12.20
2017-04-21T13:04:01.756Z,12.20
2017-04-21T13:05:07.767Z,12.10
2017-04-21T13:06:13.564Z,12.10
2017-04-21T13:07:20.173Z,12.10
2017-04-21T13:08:26.939Z,12.10
2017-04-21T13:09:33.003Z,12.10
2017-04-21T13:10:39.036Z,12.20
2017-04-21T13:11:44.938Z,12.20
2017-04-21T13:12:50.726Z,12.20
2017-04-21T13:13:56.701Z,12.20
2017-04-21T13:15:02.608Z,12.30
2017-04-21T13:16:08.374Z,12.40
2017-04-21T13:17:14.327Z,12.50
2017-04-21T13:18:20.892Z,12.40
2017-04-21T13:19:26.926Z,12.40
2017-04-21T13:20:32.860Z,12.30
2017-04-21T13:21:38.652Z,12.20
2017-04-21T13:22:44.413Z,12.20
2017-04-21T13:23:51.593Z,12.20
2017-04-21T13:24:58.167Z,12.20
2017-04-21T13:26:04.140Z,12.20
2017-04-21T13:27:10.728Z,12.10
2017-04-21T13:28:16.732Z,12.00
2017-04-21T13:29:22.846Z,12.00
2017-04-21T13:30:28.647Z,12.00
2017-04-21T13:31:34.637Z,11.90
2017-04-21T13:32:40.772Z,11.90
2017-04-21T13:33:47.475Z,11.80
2017-04-21T13:34:54.090Z,11.80
2017-04-21T13:35:59.957Z,11.80
2017-04-21T13:37:05.873Z,11.90
2017-04-21T13:38:11.749Z,11.90
2017-04-21T13:39:18.348Z,11.80
2017-04-21T13:40:24.262Z,11.80
2017-04-21T13:41:30.328Z,11.80
2017-04-21T13:42:36.148Z,11.90
2017-04-21T13:43:41.930Z,11.80
2017-04-21T13:44:47.971Z,11.90
2017-04-21T13:45:53.929Z,11.90
2017-04-21T13:46:59.671Z,11.90
2017-04-21T13:48:05.471Z,11.90
2017-04-21T13:49:11.621Z,11.80
2017-04-21T13:50:17.554Z,12.00
2017-04-21T13:51:23.608Z,11.90
2017-04-21T13:52:30.164Z,11.90
2017-04-21T13:53:36.153Z,11.90
2017-04-21T13:54:42.061Z,11.80
2017-04-21T13:55:48.612Z,11.90
2017-04-21T13:56:54.652Z,11.90
2017-04-21T13:58:02.693Z,11.90
2017-04-21T13:59:08.699Z,11.90
2017-04-21T14:00:14.717Z,11.80
2017-04-21T14:01:21.600Z,11.80
2017-04-21T14:02:27.599Z,11.90
2017-04-21T14:03:35.086Z,11.90
2017-04-21T14:04:41.074Z,12.00
2017-04-21T14:05:47.869Z,12.00
2017-04-21T14:06:54.459Z,11.90
2017-04-21T14:08:00.555Z,12.00
2017-04-21T14:09:06.512Z,12.00
2017-04-21T14:10:12.690Z,12.00
2017-04-21T14:11:18.677Z,12.00
2017-04-21T14:12:25.812Z,12.10
2017-04-21T14:13:31.798Z,12.10
2017-04-21T14:14:37.736Z,12.10
2017-04-21T14:15:43.523Z,12.10
2017-04-21T14:16:49.513Z,12.10
2017-04-21T14:17:56.197Z,11.90
2017-04-21T14:19:02.732Z,11.90
2017-04-21T14:20:08.881Z,12.00
2017-04-21T14:21:14.736Z,12.00
2017-04-21T14:22:21.241Z,11.90
2017-04-21T14:23:27.033Z,11.80
2017-04-21T14:24:33.069Z,11.80
2017-04-21T14:25:39.652Z,11.80
2017-04-21T14:26:45.412Z,11.70
2017-04-21T14:27:51.392Z,11.70
2017-04-21T14:28:57.233Z,11.70
2017-04-21T14:30:03.257Z,11.60
2017-04-21T14:31:10.065Z,11.60
2017-04-21T14:32:15.939Z,11.60
2017-04-21T14:33:21.945Z,11.50
2017-04-21T14:34:27.845Z,11.50
2017-04-21T14:35:33.572Z,11.50
2017-04-21T14:36:40.180Z,11.40
2017-04-21T14:37:46.419Z,11.30
2017-04-21T14:38:52.276Z,11.30
2017-04-21T14:39:58.392Z,11.30
2017-04-21T14:41:05.139Z,11.30